sensor_id;sensor_type;location;lat;lon;timestamp;P1;durP1;ratioP1;P2;durP2;ratioP2
2390;SDS011;22957;50.824;4.360;2022-07-12T00:00:10;7.20;;;3.30;;
2390;SDS011;22957;50.824;4.360;2022-07-12T00:02:36;5.30;;;2.57;;
2390;SDS011;22957;50.824;4.360;2022-07-12T00:05:02;5.10;;;3.30;;
2390;SDS011;22957;50.824;4.360;2022-07-12T00:07:28;6.63;;;3.30;;
2390;SDS011;22957;50.824;4.360;2022-07-12T00:09:53;4.43;;;3.33;;
2390;SDS011;22957;50.824;4.360;2022-07-12T00:12:19;11.40;;;3.87;;
2390;SDS011;22957;50.824;4.360;2022-07-12T00:14:45;3.20;;;2.80;;
2390;SDS011;22957;50.824;4.360;2022-07-12T00:17:10;6.13;;;3.50;;
2390;SDS011;22957;50.824;4.360;2022-07-12T00:19:36;3.17;;;2.87;;
2390;SDS011;22957;50.824;4.360;2022-07-12T00:22:01;3.97;;;3.30;;
2390;SDS011;22957;50.824;4.360;2022-07-12T00:24:27;5.00;;;3.50;;
2390;SDS011;22957;50.824;4.360;2022-07-12T00:26:53;3.10;;;2.80;;
2390;SDS011;22957;50.824;4.360;2022-07-12T00:29:19;5.77;;;2.90;;
2390;SDS011;22957;50.824;4.360;2022-07-12T00:31:44;6.37;;;3.90;;
2390;SDS011;22957;50.824;4.360;2022-07-12T00:34:10;3.30;;;3.00;;
2390;SDS011;22957;50.824;4.360;2022-07-12T00:36:35;3.30;;;2.90;;
2390;SDS011;22957;50.824;4.360;2022-07-12T00:39:01;3.20;;;2.90;;
2390;SDS011;22957;50.824;4.360;2022-07-12T00:41:28;4.00;;;3.10;;
2390;SDS011;22957;50.824;4.360;2022-07-12T00:43:53;3.50;;;2.87;;
2390;SDS011;22957;50.824;4.360;2022-07-12T00:46:21;4.00;;;3.00;;
2390;SDS011;22957;50.824;4.360;2022-07-12T00:48:48;8.40;;;3.90;;
2390;SDS011;22957;50.824;4.360;2022-07-12T00:51:16;4.57;;;3.60;;
2390;SDS011;22957;50.824;4.360;2022-07-12T00:53:43;4.40;;;4.00;;
2390;SDS011;22957;50.824;4.360;2022-07-12T00:56:08;5.93;;;3.83;;
2390;SDS011;22957;50.824;4.360;2022-07-12T00:58:34;4.90;;;3.57;;
2390;SDS011;22957;50.824;4.360;2022-07-12T01:01:00;5.10;;;4.60;;
2390;SDS011;22957;50.824;4.360;2022-07-12T01:03:26;5.43;;;3.40;;
2390;SDS011;22957;50.824;4.360;2022-07-12T01:05:55;5.10;;;3.83;;
2390;SDS011;22957;50.824;4.360;2022-07-12T01:08:20;8.03;;;4.53;;
2390;SDS011;22957;50.824;4.360;2022-07-12T01:10:47;6.40;;;4.80;;
2390;SDS011;22957;50.824;4.360;2022-07-12T01:13:14;4.10;;;3.70;;
2390;SDS011;22957;50.824;4.360;2022-07-12T01:15:40;8.07;;;5.47;;
2390;SDS011;22957;50.824;4.360;2022-07-12T01:18:07;7.30;;;5.27;;
2390;SDS011;22957;50.824;4.360;2022-07-12T01:20:35;11.50;;;4.83;;
2390;SDS011;22957;50.824;4.360;2022-07-12T01:23:01;7.10;;;5.33;;
2390;SDS011;22957;50.824;4.360;2022-07-12T01:25:27;7.17;;;4.43;;
2390;SDS011;22957;50.824;4.360;2022-07-12T01:27:53;7.33;;;5.30;;
2390;SDS011;22957;50.824;4.360;2022-07-12T01:30:19;9.47;;;4.10;;
2390;SDS011;22957;50.824;4.360;2022-07-12T01:32:45;8.00;;;5.30;;
2390;SDS011;22957;50.824;4.360;2022-07-12T01:35:11;4.90;;;3.90;;
2390;SDS011;22957;50.824;4.360;2022-07-12T01:37:37;5.67;;;3.33;;
2390;SDS011;22957;50.824;4.360;2022-07-12T01:40:06;8.80;;;4.57;;
2390;SDS011;22957;50.824;4.360;2022-07-12T01:42:36;4.10;;;3.80;;
2390;SDS011;22957;50.824;4.360;2022-07-12T01:45:02;5.13;;;4.23;;
2390;SDS011;22957;50.824;4.360;2022-07-12T01:47:30;4.17;;;3.60;;
2390;SDS011;22957;50.824;4.360;2022-07-12T01:49:57;4.13;;;3.83;;
2390;SDS011;22957;50.824;4.360;2022-07-12T01:52:23;5.07;;;3.97;;
2390;SDS011;22957;50.824;4.360;2022-07-12T01:54:49;3.83;;;3.37;;
2390;SDS011;22957;50.824;4.360;2022-07-12T01:57:15;4.13;;;3.77;;
2390;SDS011;22957;50.824;4.360;2022-07-12T01:59:41;4.80;;;4.40;;
2390;SDS011;22957;50.824;4.360;2022-07-12T02:02:07;4.33;;;4.00;;
2390;SDS011;22957;50.824;4.360;2022-07-12T02:04:34;4.10;;;3.80;;
2390;SDS011;22957;50.824;4.360;2022-07-12T02:07:00;7.67;;;4.30;;
2390;SDS011;22957;50.824;4.360;2022-07-12T02:09:26;5.90;;;3.23;;
2390;SDS011;22957;50.824;4.360;2022-07-12T02:11:52;5.30;;;4.10;;
2390;SDS011;22957;50.824;4.360;2022-07-12T02:14:18;9.37;;;3.80;;
2390;SDS011;22957;50.824;4.360;2022-07-12T02:16:44;6.50;;;3.33;;
2390;SDS011;22957;50.824;4.360;2022-07-12T02:19:10;3.37;;;3.17;;
2390;SDS011;22957;50.824;4.360;2022-07-12T02:21:37;4.23;;;3.80;;
2390;SDS011;22957;50.824;4.360;2022-07-12T02:24:03;5.13;;;4.23;;
2390;SDS011;22957;50.824;4.360;2022-07-12T02:26:29;3.17;;;2.50;;
2390;SDS011;22957;50.824;4.360;2022-07-12T02:28:57;5.27;;;3.60;;
2390;SDS011;22957;50.824;4.360;2022-07-12T02:31:23;4.80;;;3.37;;
2390;SDS011;22957;50.824;4.360;2022-07-12T02:33:48;3.80;;;3.40;;
2390;SDS011;22957;50.824;4.360;2022-07-12T02:36:14;4.03;;;3.63;;
2390;SDS011;22957;50.824;4.360;2022-07-12T02:38:39;3.73;;;3.37;;
2390;SDS011;22957;50.824;4.360;2022-07-12T02:41:05;3.90;;;3.60;;
2390;SDS011;22957;50.824;4.360;2022-07-12T02:43:31;5.80;;;4.00;;
2390;SDS011;22957;50.824;4.360;2022-07-12T02:46:05;3.90;;;3.60;;
2390;SDS011;22957;50.824;4.360;2022-07-12T02:48:32;9.43;;;3.60;;
2390;SDS011;22957;50.824;4.360;2022-07-12T02:50:59;4.63;;;3.53;;
2390;SDS011;22957;50.824;4.360;2022-07-12T02:53:25;4.23;;;3.83;;
2390;SDS011;22957;50.824;4.360;2022-07-12T02:55:51;3.40;;;3.10;;
2390;SDS011;22957;50.824;4.360;2022-07-12T02:58:16;4.70;;;2.57;;
2390;SDS011;22957;50.824;4.360;2022-07-12T03:00:42;5.17;;;2.93;;
2390;SDS011;22957;50.824;4.360;2022-07-12T03:03:09;3.40;;;3.10;;
2390;SDS011;22957;50.824;4.360;2022-07-12T03:05:36;2.83;;;2.50;;
2390;SDS011;22957;50.824;4.360;2022-07-12T03:08:02;4.70;;;3.20;;
2390;SDS011;22957;50.824;4.360;2022-07-12T03:10:28;4.00;;;3.70;;
2390;SDS011;22957;50.824;4.360;2022-07-12T03:12:54;5.37;;;4.23;;
2390;SDS011;22957;50.824;4.360;2022-07-12T03:15:20;4.47;;;4.10;;
2390;SDS011;22957;50.824;4.360;2022-07-12T03:17:45;5.07;;;3.83;;
2390;SDS011;22957;50.824;4.360;2022-07-12T03:20:11;4.07;;;3.77;;
2390;SDS011;22957;50.824;4.360;2022-07-12T03:22:39;9.87;;;4.60;;
2390;SDS011;22957;50.824;4.360;2022-07-12T03:25:06;5.57;;;3.60;;
2390;SDS011;22957;50.824;4.360;2022-07-12T03:27:33;5.23;;;3.10;;
2390;SDS011;22957;50.824;4.360;2022-07-12T03:29:59;4.00;;;3.50;;
2390;SDS011;22957;50.824;4.360;2022-07-12T03:32:25;4.23;;;3.80;;
2390;SDS011;22957;50.824;4.360;2022-07-12T03:34:51;4.37;;;3.73;;
2390;SDS011;22957;50.824;4.360;2022-07-12T03:37:17;3.70;;;3.40;;
2390;SDS011;22957;50.824;4.360;2022-07-12T03:39:43;6.93;;;3.90;;
2390;SDS011;22957;50.824;4.360;2022-07-12T03:42:09;4.13;;;3.80;;
2390;SDS011;22957;50.824;4.360;2022-07-12T03:44:36;4.60;;;3.70;;
2390;SDS011;22957;50.824;4.360;2022-07-12T03:47:02;5.80;;;3.93;;
2390;SDS011;22957;50.824;4.360;2022-07-12T03:49:27;4.87;;;4.20;;
2390;SDS011;22957;50.824;4.360;2022-07-12T03:51:53;12.13;;;5.17;;
2390;SDS011;22957;50.824;4.360;2022-07-12T03:54:19;7.73;;;4.60;;
2390;SDS011;22957;50.824;4.360;2022-07-12T03:56:44;5.57;;;5.00;;
2390;SDS011;22957;50.824;4.360;2022-07-12T03:59:29;6.80;;;5.07;;
2390;SDS011;22957;50.824;4.360;2022-07-12T04:01:55;4.63;;;4.17;;
2390;SDS011;22957;50.824;4.360;2022-07-12T04:04:20;3.80;;;3.50;;
2390;SDS011;22957;50.824;4.360;2022-07-12T04:06:46;5.80;;;4.47;;
2390;SDS011;22957;50.824;4.360;2022-07-12T04:09:12;9.77;;;3.80;;
2390;SDS011;22957;50.824;4.360;2022-07-12T04:11:37;7.53;;;4.47;;
2390;SDS011;22957;50.824;4.360;2022-07-12T04:14:03;6.20;;;5.03;;
2390;SDS011;22957;50.824;4.360;2022-07-12T04:16:29;4.13;;;3.83;;
2390;SDS011;22957;50.824;4.360;2022-07-12T04:18:55;6.03;;;5.43;;
2390;SDS011;22957;50.824;4.360;2022-07-12T04:21:21;8.60;;;5.70;;
2390;SDS011;22957;50.824;4.360;2022-07-12T04:23:46;6.33;;;5.73;;
2390;SDS011;22957;50.824;4.360;2022-07-12T04:26:12;7.70;;;6.37;;
2390;SDS011;22957;50.824;4.360;2022-07-12T04:28:38;7.17;;;5.90;;
2390;SDS011;22957;50.824;4.360;2022-07-12T04:31:04;8.60;;;5.90;;
2390;SDS011;22957;50.824;4.360;2022-07-12T04:33:31;7.77;;;5.47;;
2390;SDS011;22957;50.824;4.360;2022-07-12T04:35:57;5.10;;;4.63;;
2390;SDS011;22957;50.824;4.360;2022-07-12T04:38:23;6.20;;;5.60;;
2390;SDS011;22957;50.824;4.360;2022-07-12T04:40:49;6.13;;;4.23;;
2390;SDS011;22957;50.824;4.360;2022-07-12T04:43:15;7.83;;;4.33;;
2390;SDS011;22957;50.824;4.360;2022-07-12T04:45:40;4.07;;;3.67;;
2390;SDS011;22957;50.824;4.360;2022-07-12T04:48:09;6.87;;;4.37;;
2390;SDS011;22957;50.824;4.360;2022-07-12T04:50:38;3.40;;;3.03;;
2390;SDS011;22957;50.824;4.360;2022-07-12T04:53:04;3.63;;;3.33;;
2390;SDS011;22957;50.824;4.360;2022-07-12T04:55:46;2.73;;;2.53;;
2390;SDS011;22957;50.824;4.360;2022-07-12T04:58:11;3.17;;;2.57;;
2390;SDS011;22957;50.824;4.360;2022-07-12T05:00:37;4.53;;;3.63;;
2390;SDS011;22957;50.824;4.360;2022-07-12T05:03:03;3.60;;;3.30;;
2390;SDS011;22957;50.824;4.360;2022-07-12T05:05:28;3.17;;;2.87;;
2390;SDS011;22957;50.824;4.360;2022-07-12T05:07:54;3.33;;;2.20;;
2390;SDS011;22957;50.824;4.360;2022-07-12T05:10:19;5.47;;;3.67;;
2390;SDS011;22957;50.824;4.360;2022-07-12T05:12:45;4.37;;;3.60;;
2390;SDS011;22957;50.824;4.360;2022-07-12T05:15:11;3.07;;;2.80;;
2390;SDS011;22957;50.824;4.360;2022-07-12T05:17:36;3.40;;;3.17;;
2390;SDS011;22957;50.824;4.360;2022-07-12T05:20:02;3.33;;;3.03;;
2390;SDS011;22957;50.824;4.360;2022-07-12T05:22:28;3.50;;;2.50;;
2390;SDS011;22957;50.824;4.360;2022-07-12T05:24:54;4.63;;;3.30;;
2390;SDS011;22957;50.824;4.360;2022-07-12T05:27:19;3.47;;;3.27;;
2390;SDS011;22957;50.824;4.360;2022-07-12T05:29:45;4.17;;;3.77;;
2390;SDS011;22957;50.824;4.360;2022-07-12T05:32:11;4.40;;;4.10;;
2390;SDS011;22957;50.824;4.360;2022-07-12T05:34:37;4.53;;;4.23;;
2390;SDS011;22957;50.824;4.360;2022-07-12T05:37:03;4.67;;;4.00;;
2390;SDS011;22957;50.824;4.360;2022-07-12T05:39:29;4.13;;;3.53;;
2390;SDS011;22957;50.824;4.360;2022-07-12T05:41:55;3.97;;;3.60;;
2390;SDS011;22957;50.824;4.360;2022-07-12T05:44:21;3.40;;;3.10;;
2390;SDS011;22957;50.824;4.360;2022-07-12T05:46:47;3.53;;;3.23;;
2390;SDS011;22957;50.824;4.360;2022-07-12T05:49:14;4.07;;;3.77;;
2390;SDS011;22957;50.824;4.360;2022-07-12T05:51:39;4.80;;;4.30;;
2390;SDS011;22957;50.824;4.360;2022-07-12T05:54:25;5.17;;;4.77;;
2390;SDS011;22957;50.824;4.360;2022-07-12T05:57:05;5.80;;;4.10;;
2390;SDS011;22957;50.824;4.360;2022-07-12T05:59:31;4.37;;;4.07;;
2390;SDS011;22957;50.824;4.360;2022-07-12T06:01:59;5.80;;;4.93;;
2390;SDS011;22957;50.824;4.360;2022-07-12T06:04:24;6.20;;;5.60;;
2390;SDS011;22957;50.824;4.360;2022-07-12T06:06:50;7.17;;;6.47;;
2390;SDS011;22957;50.824;4.360;2022-07-12T06:09:15;5.70;;;5.20;;
2390;SDS011;22957;50.824;4.360;2022-07-12T06:11:41;7.30;;;6.70;;
2390;SDS011;22957;50.824;4.360;2022-07-12T06:14:07;13.23;;;7.00;;
2390;SDS011;22957;50.824;4.360;2022-07-12T06:16:32;6.57;;;5.97;;
2390;SDS011;22957;50.824;4.360;2022-07-12T06:18:58;5.33;;;4.93;;
2390;SDS011;22957;50.824;4.360;2022-07-12T06:21:24;8.60;;;6.20;;
2390;SDS011;22957;50.824;4.360;2022-07-12T06:23:49;11.23;;;6.57;;
2390;SDS011;22957;50.824;4.360;2022-07-12T06:26:15;7.13;;;5.80;;
2390;SDS011;22957;50.824;4.360;2022-07-12T06:28:40;5.87;;;5.23;;
2390;SDS011;22957;50.824;4.360;2022-07-12T06:31:06;6.20;;;5.60;;
2390;SDS011;22957;50.824;4.360;2022-07-12T06:33:32;6.57;;;5.93;;
2390;SDS011;22957;50.824;4.360;2022-07-12T06:35:59;6.23;;;5.20;;
2390;SDS011;22957;50.824;4.360;2022-07-12T06:38:25;7.33;;;6.10;;
2390;SDS011;22957;50.824;4.360;2022-07-12T06:40:51;5.43;;;4.80;;
2390;SDS011;22957;50.824;4.360;2022-07-12T06:43:16;5.67;;;5.17;;
2390;SDS011;22957;50.824;4.360;2022-07-12T06:45:42;7.33;;;5.57;;
2390;SDS011;22957;50.824;4.360;2022-07-12T06:48:08;5.17;;;4.70;;
2390;SDS011;22957;50.824;4.360;2022-07-12T06:50:33;4.77;;;4.37;;
2390;SDS011;22957;50.824;4.360;2022-07-12T06:52:59;5.20;;;4.63;;
2390;SDS011;22957;50.824;4.360;2022-07-12T06:55:25;5.63;;;5.13;;
2390;SDS011;22957;50.824;4.360;2022-07-12T06:57:51;4.60;;;4.30;;
2390;SDS011;22957;50.824;4.360;2022-07-12T07:00:17;4.40;;;4.00;;
2390;SDS011;22957;50.824;4.360;2022-07-12T07:02:42;5.57;;;4.90;;
2390;SDS011;22957;50.824;4.360;2022-07-12T07:05:08;5.03;;;4.63;;
2390;SDS011;22957;50.824;4.360;2022-07-12T07:07:36;5.23;;;4.73;;
2390;SDS011;22957;50.824;4.360;2022-07-12T07:10:01;5.13;;;3.93;;
2390;SDS011;22957;50.824;4.360;2022-07-12T07:12:27;4.33;;;3.93;;
2390;SDS011;22957;50.824;4.360;2022-07-12T07:14:53;4.27;;;3.60;;
2390;SDS011;22957;50.824;4.360;2022-07-12T07:17:19;8.20;;;4.30;;
2390;SDS011;22957;50.824;4.360;2022-07-12T07:19:47;7.70;;;4.90;;
2390;SDS011;22957;50.824;4.360;2022-07-12T07:22:13;5.40;;;4.90;;
2390;SDS011;22957;50.824;4.360;2022-07-12T07:24:39;5.07;;;4.13;;
2390;SDS011;22957;50.824;4.360;2022-07-12T07:27:07;4.47;;;4.17;;
2390;SDS011;22957;50.824;4.360;2022-07-12T07:29:33;4.23;;;3.90;;
2390;SDS011;22957;50.824;4.360;2022-07-12T07:32:17;5.17;;;4.67;;
2390;SDS011;22957;50.824;4.360;2022-07-12T07:34:43;6.43;;;4.20;;
2390;SDS011;22957;50.824;4.360;2022-07-12T07:37:10;4.93;;;4.13;;
2390;SDS011;22957;50.824;4.360;2022-07-12T07:39:38;4.37;;;3.97;;
2390;SDS011;22957;50.824;4.360;2022-07-12T07:42:04;4.30;;;4.00;;
2390;SDS011;22957;50.824;4.360;2022-07-12T07:44:30;5.07;;;4.57;;
2390;SDS011;22957;50.824;4.360;2022-07-12T07:46:56;5.70;;;4.07;;
2390;SDS011;22957;50.824;4.360;2022-07-12T07:49:21;6.97;;;4.53;;
2390;SDS011;22957;50.824;4.360;2022-07-12T07:51:47;5.10;;;4.70;;
2390;SDS011;22957;50.824;4.360;2022-07-12T07:54:13;5.30;;;4.90;;
2390;SDS011;22957;50.824;4.360;2022-07-12T07:56:39;4.73;;;4.33;;
2390;SDS011;22957;50.824;4.360;2022-07-12T07:59:05;5.47;;;4.93;;
2390;SDS011;22957;50.824;4.360;2022-07-12T08:01:32;4.60;;;4.30;;
2390;SDS011;22957;50.824;4.360;2022-07-12T08:04:13;6.40;;;4.53;;
2390;SDS011;22957;50.824;4.360;2022-07-12T08:06:39;4.70;;;4.30;;
2390;SDS011;22957;50.824;4.360;2022-07-12T08:09:05;6.57;;;4.20;;
2390;SDS011;22957;50.824;4.360;2022-07-12T08:11:32;4.10;;;3.70;;
2390;SDS011;22957;50.824;4.360;2022-07-12T08:13:58;4.50;;;4.20;;
2390;SDS011;22957;50.824;4.360;2022-07-12T08:16:24;4.60;;;3.80;;
2390;SDS011;22957;50.824;4.360;2022-07-12T08:18:51;5.93;;;4.47;;
2390;SDS011;22957;50.824;4.360;2022-07-12T08:21:17;5.00;;;4.37;;
2390;SDS011;22957;50.824;4.360;2022-07-12T08:23:42;5.47;;;4.33;;
2390;SDS011;22957;50.824;4.360;2022-07-12T08:26:08;4.07;;;3.73;;
2390;SDS011;22957;50.824;4.360;2022-07-12T08:28:34;7.20;;;4.10;;
2390;SDS011;22957;50.824;4.360;2022-07-12T08:31:00;5.07;;;4.17;;
2390;SDS011;22957;50.824;4.360;2022-07-12T08:33:25;6.13;;;4.47;;
2390;SDS011;22957;50.824;4.360;2022-07-12T08:35:53;4.60;;;4.10;;
2390;SDS011;22957;50.824;4.360;2022-07-12T08:38:18;4.30;;;3.90;;
2390;SDS011;22957;50.824;4.360;2022-07-12T08:40:45;4.77;;;3.90;;
2390;SDS011;22957;50.824;4.360;2022-07-12T08:43:11;7.30;;;4.27;;
2390;SDS011;22957;50.824;4.360;2022-07-12T08:45:37;5.57;;;3.90;;
2390;SDS011;22957;50.824;4.360;2022-07-12T08:48:03;5.03;;;4.27;;
2390;SDS011;22957;50.824;4.360;2022-07-12T08:50:29;4.87;;;3.87;;
2390;SDS011;22957;50.824;4.360;2022-07-12T08:52:56;8.60;;;4.60;;
2390;SDS011;22957;50.824;4.360;2022-07-12T08:55:23;7.33;;;6.70;;
2390;SDS011;22957;50.824;4.360;2022-07-12T08:58:14;5.33;;;4.73;;
2390;SDS011;22957;50.824;4.360;2022-07-12T09:00:40;5.60;;;4.97;;
2390;SDS011;22957;50.824;4.360;2022-07-12T09:03:07;6.97;;;4.63;;
2390;SDS011;22957;50.824;4.360;2022-07-12T09:05:33;8.00;;;3.53;;
2390;SDS011;22957;50.824;4.360;2022-07-12T09:10:32;8.30;;;4.90;;
2390;SDS011;22957;50.824;4.360;2022-07-12T09:13:00;8.80;;;4.40;;
2390;SDS011;22957;50.824;4.360;2022-07-12T09:15:26;4.13;;;3.67;;
2390;SDS011;22957;50.824;4.360;2022-07-12T09:18:00;7.27;;;5.00;;
2390;SDS011;22957;50.824;4.360;2022-07-12T09:20:29;5.40;;;4.87;;
2390;SDS011;22957;50.824;4.360;2022-07-12T09:23:04;7.17;;;4.10;;
2390;SDS011;22957;50.824;4.360;2022-07-12T09:25:34;4.40;;;4.00;;
2390;SDS011;22957;50.824;4.360;2022-07-12T09:28:07;8.73;;;4.80;;
2390;SDS011;22957;50.824;4.360;2022-07-12T09:30:34;10.37;;;4.20;;
2390;SDS011;22957;50.824;4.360;2022-07-12T09:33:04;6.70;;;4.20;;
2390;SDS011;22957;50.824;4.360;2022-07-12T09:41:16;6.17;;;4.13;;
2390;SDS011;22957;50.824;4.360;2022-07-12T09:43:44;4.20;;;3.80;;
2390;SDS011;22957;50.824;4.360;2022-07-12T09:46:10;4.60;;;4.00;;
2390;SDS011;22957;50.824;4.360;2022-07-12T09:48:37;4.83;;;3.87;;
2390;SDS011;22957;50.824;4.360;2022-07-12T09:51:04;6.27;;;3.90;;
2390;SDS011;22957;50.824;4.360;2022-07-12T10:01:20;5.60;;;3.60;;
2390;SDS011;22957;50.824;4.360;2022-07-12T10:06:29;5.70;;;3.40;;
2390;SDS011;22957;50.824;4.360;2022-07-12T10:08:55;5.07;;;3.83;;
2390;SDS011;22957;50.824;4.360;2022-07-12T10:11:27;4.70;;;4.33;;
2390;SDS011;22957;50.824;4.360;2022-07-12T10:14:14;4.30;;;3.90;;
2390;SDS011;22957;50.824;4.360;2022-07-12T10:16:42;3.27;;;2.97;;
2390;SDS011;22957;50.824;4.360;2022-07-12T10:19:26;4.20;;;3.13;;
2390;SDS011;22957;50.824;4.360;2022-07-12T10:24:45;3.13;;;2.90;;
2390;SDS011;22957;50.824;4.360;2022-07-12T10:29:46;3.40;;;3.10;;
2390;SDS011;22957;50.824;4.360;2022-07-12T10:32:34;3.70;;;3.40;;
2390;SDS011;22957;50.824;4.360;2022-07-12T10:35:05;2.73;;;2.53;;
2390;SDS011;22957;50.824;4.360;2022-07-12T10:40:43;3.50;;;3.30;;
2390;SDS011;22957;50.824;4.360;2022-07-12T10:43:42;3.07;;;2.77;;
2390;SDS011;22957;50.824;4.360;2022-07-12T10:59:56;5.63;;;2.93;;
2390;SDS011;22957;50.824;4.360;2022-07-12T11:02:24;4.00;;;2.73;;
2390;SDS011;22957;50.824;4.360;2022-07-12T11:05:01;3.10;;;2.70;;
2390;SDS011;22957;50.824;4.360;2022-07-12T11:07:29;3.60;;;3.30;;
2390;SDS011;22957;50.824;4.360;2022-07-12T11:10:01;4.63;;;2.60;;
2390;SDS011;22957;50.824;4.360;2022-07-12T11:12:51;2.87;;;2.60;;
2390;SDS011;22957;50.824;4.360;2022-07-12T11:15:59;3.93;;;3.00;;
2390;SDS011;22957;50.824;4.360;2022-07-12T11:18:42;3.87;;;2.90;;
2390;SDS011;22957;50.824;4.360;2022-07-12T11:21:09;3.43;;;3.13;;
2390;SDS011;22957;50.824;4.360;2022-07-12T11:23:42;3.10;;;2.70;;
2390;SDS011;22957;50.824;4.360;2022-07-12T11:26:25;3.83;;;2.50;;
2390;SDS011;22957;50.824;4.360;2022-07-12T11:28:55;5.90;;;2.93;;
2390;SDS011;22957;50.824;4.360;2022-07-12T11:31:24;3.00;;;2.57;;
2390;SDS011;22957;50.824;4.360;2022-07-12T11:33:50;6.00;;;3.50;;
2390;SDS011;22957;50.824;4.360;2022-07-12T11:36:18;4.33;;;3.87;;
2390;SDS011;22957;50.824;4.360;2022-07-12T11:38:48;4.00;;;2.80;;
2390;SDS011;22957;50.824;4.360;2022-07-12T11:41:15;4.77;;;2.90;;
2390;SDS011;22957;50.824;4.360;2022-07-12T11:43:40;3.70;;;3.40;;
2390;SDS011;22957;50.824;4.360;2022-07-12T11:46:08;3.87;;;3.03;;
2390;SDS011;22957;50.824;4.360;2022-07-12T11:48:35;3.00;;;2.63;;
2390;SDS011;22957;50.824;4.360;2022-07-12T11:51:04;3.30;;;2.70;;
2390;SDS011;22957;50.824;4.360;2022-07-12T11:53:36;3.27;;;2.97;;
2390;SDS011;22957;50.824;4.360;2022-07-12T11:56:02;4.40;;;2.80;;
2390;SDS011;22957;50.824;4.360;2022-07-12T11:58:30;3.67;;;3.13;;
2390;SDS011;22957;50.824;4.360;2022-07-12T12:01:11;8.63;;;3.33;;
2390;SDS011;22957;50.824;4.360;2022-07-12T12:03:43;4.37;;;3.47;;
2390;SDS011;22957;50.824;4.360;2022-07-12T12:06:10;3.93;;;3.20;;
2390;SDS011;22957;50.824;4.360;2022-07-12T12:08:41;4.03;;;3.63;;
2390;SDS011;22957;50.824;4.360;2022-07-12T12:11:07;9.93;;;4.00;;
2390;SDS011;22957;50.824;4.360;2022-07-12T12:13:33;3.37;;;3.07;;
2390;SDS011;22957;50.824;4.360;2022-07-12T12:16:00;2.57;;;2.37;;
2390;SDS011;22957;50.824;4.360;2022-07-12T12:18:32;3.30;;;2.50;;
2390;SDS011;22957;50.824;4.360;2022-07-12T12:21:08;4.63;;;3.30;;
2390;SDS011;22957;50.824;4.360;2022-07-12T12:23:38;3.17;;;2.87;;
2390;SDS011;22957;50.824;4.360;2022-07-12T12:26:12;2.90;;;2.47;;
2390;SDS011;22957;50.824;4.360;2022-07-12T12:31:18;3.20;;;2.90;;
2390;SDS011;22957;50.824;4.360;2022-07-12T12:33:46;4.50;;;2.57;;
2390;SDS011;22957;50.824;4.360;2022-07-12T12:37:03;3.90;;;2.80;;
2390;SDS011;22957;50.824;4.360;2022-07-12T12:39:29;4.27;;;2.77;;
2390;SDS011;22957;50.824;4.360;2022-07-12T12:42:22;5.17;;;3.10;;
2390;SDS011;22957;50.824;4.360;2022-07-12T12:44:50;2.57;;;2.20;;
2390;SDS011;22957;50.824;4.360;2022-07-12T12:47:17;6.60;;;2.30;;
2390;SDS011;22957;50.824;4.360;2022-07-12T12:50:00;3.13;;;2.93;;
2390;SDS011;22957;50.824;4.360;2022-07-12T12:52:27;3.30;;;2.83;;
2390;SDS011;22957;50.824;4.360;2022-07-12T12:54:55;2.73;;;2.47;;
2390;SDS011;22957;50.824;4.360;2022-07-12T12:57:25;6.20;;;4.60;;
2390;SDS011;22957;50.824;4.360;2022-07-12T13:00:01;6.97;;;3.30;;
2390;SDS011;22957;50.824;4.360;2022-07-12T13:02:49;3.00;;;2.53;;
2390;SDS011;22957;50.824;4.360;2022-07-12T13:05:23;3.20;;;3.00;;
2390;SDS011;22957;50.824;4.360;2022-07-12T13:07:54;3.63;;;3.00;;
2390;SDS011;22957;50.824;4.360;2022-07-12T13:10:45;2.40;;;2.20;;
2390;SDS011;22957;50.824;4.360;2022-07-12T13:13:52;2.93;;;2.47;;
2390;SDS011;22957;50.824;4.360;2022-07-12T13:16:59;1.90;;;1.80;;
2390;SDS011;22957;50.824;4.360;2022-07-12T13:19:25;2.73;;;1.90;;
2390;SDS011;22957;50.824;4.360;2022-07-12T13:21:54;2.43;;;2.23;;
2390;SDS011;22957;50.824;4.360;2022-07-12T13:24:21;4.90;;;2.30;;
2390;SDS011;22957;50.824;4.360;2022-07-12T13:26:47;2.40;;;1.80;;
2390;SDS011;22957;50.824;4.360;2022-07-12T13:29:35;2.50;;;2.30;;
2390;SDS011;22957;50.824;4.360;2022-07-12T13:32:06;2.67;;;1.90;;
2390;SDS011;22957;50.824;4.360;2022-07-12T13:34:52;2.57;;;2.37;;
2390;SDS011;22957;50.824;4.360;2022-07-12T13:37:36;2.63;;;1.97;;
2390;SDS011;22957;50.824;4.360;2022-07-12T13:40:11;2.33;;;2.13;;
2390;SDS011;22957;50.824;4.360;2022-07-12T13:43:03;2.87;;;2.57;;
2390;SDS011;22957;50.824;4.360;2022-07-12T13:45:40;9.80;;;2.33;;
2390;SDS011;22957;50.824;4.360;2022-07-12T13:48:09;3.03;;;2.23;;
2390;SDS011;22957;50.824;4.360;2022-07-12T13:50:41;2.57;;;2.37;;
2390;SDS011;22957;50.824;4.360;2022-07-12T13:53:15;2.67;;;2.37;;
2390;SDS011;22957;50.824;4.360;2022-07-12T13:55:42;3.30;;;2.00;;
2390;SDS011;22957;50.824;4.360;2022-07-12T13:58:08;3.73;;;2.30;;
2390;SDS011;22957;50.824;4.360;2022-07-12T14:00:35;2.00;;;1.90;;
2390;SDS011;22957;50.824;4.360;2022-07-12T14:03:00;2.43;;;2.17;;
2390;SDS011;22957;50.824;4.360;2022-07-12T14:05:26;2.80;;;1.97;;
2390;SDS011;22957;50.824;4.360;2022-07-12T14:07:52;1.93;;;1.83;;
2390;SDS011;22957;50.824;4.360;2022-07-12T14:10:19;2.03;;;1.80;;
2390;SDS011;22957;50.824;4.360;2022-07-12T14:12:45;2.03;;;1.83;;
2390;SDS011;22957;50.824;4.360;2022-07-12T14:15:12;2.80;;;2.10;;
2390;SDS011;22957;50.824;4.360;2022-07-12T14:17:48;3.33;;;2.30;;
2390;SDS011;22957;50.824;4.360;2022-07-12T14:20:37;3.20;;;2.07;;
2390;SDS011;22957;50.824;4.360;2022-07-12T14:23:13;2.17;;;1.97;;
2390;SDS011;22957;50.824;4.360;2022-07-12T14:25:57;3.00;;;2.40;;
2390;SDS011;22957;50.824;4.360;2022-07-12T14:28:24;7.63;;;2.70;;
2390;SDS011;22957;50.824;4.360;2022-07-12T14:31:14;1.90;;;1.63;;
2390;SDS011;22957;50.824;4.360;2022-07-12T14:34:19;2.40;;;1.90;;
2390;SDS011;22957;50.824;4.360;2022-07-12T14:37:22;4.80;;;1.60;;
2390;SDS011;22957;50.824;4.360;2022-07-12T14:42:41;1.80;;;1.67;;
2390;SDS011;22957;50.824;4.360;2022-07-12T14:47:56;1.70;;;1.57;;
2390;SDS011;22957;50.824;4.360;2022-07-12T14:50:43;2.90;;;2.67;;
2390;SDS011;22957;50.824;4.360;2022-07-12T14:53:30;4.03;;;2.00;;
2390;SDS011;22957;50.824;4.360;2022-07-12T14:56:20;2.37;;;1.50;;
2390;SDS011;22957;50.824;4.360;2022-07-12T14:59:16;2.20;;;1.60;;
2390;SDS011;22957;50.824;4.360;2022-07-12T15:02:03;2.20;;;2.00;;
2390;SDS011;22957;50.824;4.360;2022-07-12T15:04:38;7.03;;;2.00;;
2390;SDS011;22957;50.824;4.360;2022-07-12T15:07:05;3.57;;;1.80;;
2390;SDS011;22957;50.824;4.360;2022-07-12T15:09:31;4.47;;;1.70;;
2390;SDS011;22957;50.824;4.360;2022-07-12T15:12:00;2.70;;;1.40;;
2390;SDS011;22957;50.824;4.360;2022-07-12T15:14:26;1.67;;;1.57;;
2390;SDS011;22957;50.824;4.360;2022-07-12T15:16:52;2.70;;;1.73;;
2390;SDS011;22957;50.824;4.360;2022-07-12T15:19:17;2.80;;;1.57;;
2390;SDS011;22957;50.824;4.360;2022-07-12T15:21:46;2.87;;;1.70;;
2390;SDS011;22957;50.824;4.360;2022-07-12T15:24:22;1.90;;;1.57;;
2390;SDS011;22957;50.824;4.360;2022-07-12T15:26:57;2.87;;;1.87;;
2390;SDS011;22957;50.824;4.360;2022-07-12T15:29:23;2.23;;;1.67;;
2390;SDS011;22957;50.824;4.360;2022-07-12T15:31:54;2.10;;;1.60;;
2390;SDS011;22957;50.824;4.360;2022-07-12T15:34:20;8.30;;;2.90;;
2390;SDS011;22957;50.824;4.360;2022-07-12T15:36:45;2.07;;;1.87;;
2390;SDS011;22957;50.824;4.360;2022-07-12T15:39:11;2.20;;;1.80;;
2390;SDS011;22957;50.824;4.360;2022-07-12T15:41:39;1.93;;;1.83;;
2390;SDS011;22957;50.824;4.360;2022-07-12T15:44:06;2.43;;;2.23;;
2390;SDS011;22957;50.824;4.360;2022-07-12T15:46:32;4.93;;;1.73;;
2390;SDS011;22957;50.824;4.360;2022-07-12T15:49:39;2.53;;;1.37;;
2390;SDS011;22957;50.824;4.360;2022-07-12T15:52:37;2.77;;;1.60;;
2390;SDS011;22957;50.824;4.360;2022-07-12T15:55:22;3.50;;;2.03;;
2390;SDS011;22957;50.824;4.360;2022-07-12T15:57:50;6.93;;;1.90;;
2390;SDS011;22957;50.824;4.360;2022-07-12T16:00:36;6.27;;;4.10;;
2390;SDS011;22957;50.824;4.360;2022-07-12T16:03:01;2.50;;;2.30;;